sensor_id;sensor_type;location;lat;lon;timestamp;pressure;altitude;pressure_sealevel;temperature;humidity
49044;BME280;34860;48.066;14.124;2022-10-22T00:01:16;96413.00;;;10.66;74.10
49044;BME280;34860;48.066;14.124;2022-10-22T00:04:08;96414.66;;;10.63;74.18
49044;BME280;34860;48.066;14.124;2022-10-22T00:06:58;96416.41;;;10.57;74.32
49044;BME280;34860;48.066;14.124;2022-10-22T00:09:50;96415.66;;;10.57;74.51
49044;BME280;34860;48.066;14.124;2022-10-22T00:12:40;96418.31;;;10.60;74.48
49044;BME280;34860;48.066;14.124;2022-10-22T00:15:30;96415.53;;;10.60;74.53
49044;BME280;34860;48.066;14.124;2022-10-22T00:18:21;96413.31;;;10.68;74.41
49044;BME280;34860;48.066;14.124;2022-10-22T00:21:11;96411.31;;;10.81;74.12
49044;BME280;34860;48.066;14.124;2022-10-22T00:24:01;96417.88;;;10.87;73.85
49044;BME280;34860;48.066;14.124;2022-10-22T00:26:50;96412.19;;;10.91;73.68
49044;BME280;34860;48.066;14.124;2022-10-22T00:29:41;96423.00;;;10.89;73.60
49044;BME280;34860;48.066;14.124;2022-10-22T00:32:32;96426.34;;;10.84;73.76
49044;BME280;34860;48.066;14.124;2022-10-22T00:35:23;96424.00;;;10.82;73.84
49044;BME280;34860;48.066;14.124;2022-10-22T00:38:14;96410.53;;;10.81;73.78
49044;BME280;34860;48.066;14.124;2022-10-22T00:41:04;96403.22;;;10.74;73.92
49044;BME280;34860;48.066;14.124;2022-10-22T00:43:56;96400.88;;;10.72;73.84
49044;BME280;34860;48.066;14.124;2022-10-22T00:46:46;96400.88;;;10.72;73.87
49044;BME280;34860;48.066;14.124;2022-10-22T00:49:35;96407.31;;;10.69;73.93
49044;BME280;34860;48.066;14.124;2022-10-22T00:52:27;96403.41;;;10.54;74.40
49044;BME280;34860;48.066;14.124;2022-10-22T00:55:17;96390.28;;;10.54;74.41
49044;BME280;34860;48.066;14.124;2022-10-22T00:58:08;96381.75;;;10.62;74.22
49044;BME280;34860;48.066;14.124;2022-10-22T01:00:58;96386.09;;;10.63;74.11
49044;BME280;34860;48.066;14.124;2022-10-22T01:03:48;96391.28;;;10.61;74.21
49044;BME280;34860;48.066;14.124;2022-10-22T01:06:38;96402.06;;;10.59;74.00
49044;BME280;34860;48.066;14.124;2022-10-22T01:09:33;96399.09;;;10.53;74.50
49044;BME280;34860;48.066;14.124;2022-10-22T01:12:33;96381.63;;;10.52;74.41
49044;BME280;34860;48.066;14.124;2022-10-22T01:15:31;96374.09;;;10.53;74.18
49044;BME280;34860;48.066;14.124;2022-10-22T01:18:26;96377.19;;;10.55;74.40
49044;BME280;34860;48.066;14.124;2022-10-22T01:21:24;96363.41;;;10.51;74.29
49044;BME280;34860;48.066;14.124;2022-10-22T01:24:27;96355.50;;;10.37;74.50
49044;BME280;34860;48.066;14.124;2022-10-22T01:27:34;96341.34;;;10.18;75.02
49044;BME280;34860;48.066;14.124;2022-10-22T01:30:30;96350.22;;;10.13;75.43
49044;BME280;34860;48.066;14.124;2022-10-22T01:33:21;96351.69;;;10.18;75.14
49044;BME280;34860;48.066;14.124;2022-10-22T01:36:12;96334.13;;;10.21;74.92
49044;BME280;34860;48.066;14.124;2022-10-22T01:39:04;96340.03;;;10.23;74.84
49044;BME280;34860;48.066;14.124;2022-10-22T01:41:56;96345.78;;;10.16;75.02
49044;BME280;34860;48.066;14.124;2022-10-22T01:44:46;96348.41;;;10.07;75.13
49044;BME280;34860;48.066;14.124;2022-10-22T01:47:45;96358.84;;;9.90;75.64
49044;BME280;34860;48.066;14.124;2022-10-22T01:50:49;96364.69;;;9.79;75.86
49044;BME280;34860;48.066;14.124;2022-10-22T01:53:48;96363.66;;;9.73;75.59
49044;BME280;34860;48.066;14.124;2022-10-22T01:56:51;96372.63;;;9.64;75.47
49044;BME280;34860;48.066;14.124;2022-10-22T01:59:49;96362.41;;;9.61;75.48
49044;BME280;34860;48.066;14.124;2022-10-22T02:02:50;96366.38;;;9.60;75.34
49044;BME280;34860;48.066;14.124;2022-10-22T02:05:48;96359.31;;;9.59;75.25
49044;BME280;34860;48.066;14.124;2022-10-22T02:08:38;96346.63;;;9.58;75.16
49044;BME280;34860;48.066;14.124;2022-10-22T02:11:29;96334.88;;;9.67;75.00
49044;BME280;34860;48.066;14.124;2022-10-22T02:14:20;96331.81;;;9.77;74.78
49044;BME280;34860;48.066;14.124;2022-10-22T02:17:13;96325.72;;;9.82;74.67
49044;BME280;34860;48.066;14.124;2022-10-22T02:20:09;96321.44;;;9.94;74.60
49044;BME280;34860;48.066;14.124;2022-10-22T02:23:02;96327.34;;;10.09;74.13
49044;BME280;34860;48.066;14.124;2022-10-22T02:25:59;96308.34;;;10.21;74.10
49044;BME280;34860;48.066;14.124;2022-10-22T02:28:57;96299.47;;;10.26;73.74
49044;BME280;34860;48.066;14.124;2022-10-22T02:31:50;96309.34;;;10.27;74.01
49044;BME280;34860;48.066;14.124;2022-10-22T02:34:41;96307.91;;;10.22;74.13
49044;BME280;34860;48.066;14.124;2022-10-22T02:37:33;96313.03;;;10.24;74.15
49044;BME280;34860;48.066;14.124;2022-10-22T02:40:23;96323.03;;;10.21;74.14
49044;BME280;34860;48.066;14.124;2022-10-22T02:43:13;96335.03;;;10.18;74.21
49044;BME280;34860;48.066;14.124;2022-10-22T02:46:03;96341.97;;;10.10;74.24
49044;BME280;34860;48.066;14.124;2022-10-22T02:48:53;96331.75;;;9.94;74.62
49044;BME280;34860;48.066;14.124;2022-10-22T02:51:43;96335.63;;;9.84;74.88
49044;BME280;34860;48.066;14.124;2022-10-22T02:54:35;96335.72;;;9.80;75.03
49044;BME280;34860;48.066;14.124;2022-10-22T02:57:25;96342.72;;;9.85;75.02
49044;BME280;34860;48.066;14.124;2022-10-22T03:00:15;96358.59;;;9.84;74.70
49044;BME280;34860;48.066;14.124;2022-10-22T03:03:05;96363.75;;;9.69;74.90
49044;BME280;34860;48.066;14.124;2022-10-22T03:05:56;96359.75;;;9.57;75.21
49044;BME280;34860;48.066;14.124;2022-10-22T03:08:46;96366.00;;;9.45;75.18
49044;BME280;34860;48.066;14.124;2022-10-22T03:11:36;96355.97;;;9.35;75.26
49044;BME280;34860;48.066;14.124;2022-10-22T03:14:26;96365.94;;;9.32;75.09
49044;BME280;34860;48.066;14.124;2022-10-22T03:17:16;96380.69;;;9.29;75.14
49044;BME280;34860;48.066;14.124;2022-10-22T03:20:07;96379.97;;;9.25;75.00
49044;BME280;34860;48.066;14.124;2022-10-22T03:22:57;96376.00;;;9.26;74.91
49044;BME280;34860;48.066;14.124;2022-10-22T03:25:48;96377.13;;;9.29;74.80
49044;BME280;34860;48.066;14.124;2022-10-22T03:28:41;96370.69;;;9.32;74.79
49044;BME280;34860;48.066;14.124;2022-10-22T03:31:33;96381.72;;;9.35;74.59
49044;BME280;34860;48.066;14.124;2022-10-22T03:34:23;96403.53;;;9.33;74.53
49044;BME280;34860;48.066;14.124;2022-10-22T03:37:12;96402.09;;;9.29;74.64
49044;BME280;34860;48.066;14.124;2022-10-22T03:40:03;96395.75;;;9.28;74.71
49044;BME280;34860;48.066;14.124;2022-10-22T03:42:53;96421.31;;;9.36;74.63
49044;BME280;34860;48.066;14.124;2022-10-22T03:45:44;96428.31;;;9.40;74.40
49044;BME280;34860;48.066;14.124;2022-10-22T03:48:33;96441.75;;;9.42;74.40
49044;BME280;34860;48.066;14.124;2022-10-22T03:51:23;96449.31;;;9.41;74.48
49044;BME280;34860;48.066;14.124;2022-10-22T03:54:15;96458.50;;;9.38;74.53
49044;BME280;34860;48.066;14.124;2022-10-22T03:57:05;96453.38;;;9.37;74.54
49044;BME280;34860;48.066;14.124;2022-10-22T03:59:55;96447.41;;;9.38;74.40
49044;BME280;34860;48.066;14.124;2022-10-22T04:02:45;96459.19;;;9.42;74.47
49044;BME280;34860;48.066;14.124;2022-10-22T04:05:35;96452.53;;;9.40;74.43
49044;BME280;34860;48.066;14.124;2022-10-22T04:08:24;96457.63;;;9.41;74.41
49044;BME280;34860;48.066;14.124;2022-10-22T04:11:14;96466.72;;;9.42;74.47
49044;BME280;34860;48.066;14.124;2022-10-22T04:14:04;96479.03;;;9.41;74.35
49044;BME280;34860;48.066;14.124;2022-10-22T04:16:53;96489.78;;;9.39;74.41
49044;BME280;34860;48.066;14.124;2022-10-22T04:19:44;96498.53;;;9.37;74.50
49044;BME280;34860;48.066;14.124;2022-10-22T04:22:35;96502.44;;;9.40;74.37
49044;BME280;34860;48.066;14.124;2022-10-22T04:25:24;96516.66;;;9.42;74.52
49044;BME280;34860;48.066;14.124;2022-10-22T04:28:15;96504.69;;;9.45;74.43
49044;BME280;34860;48.066;14.124;2022-10-22T04:31:07;96501.38;;;9.50;74.38
49044;BME280;34860;48.066;14.124;2022-10-22T04:33:59;96497.66;;;9.57;74.37
49044;BME280;34860;48.066;14.124;2022-10-22T04:36:50;96494.28;;;9.66;74.22
49044;BME280;34860;48.066;14.124;2022-10-22T04:39:40;96509.63;;;9.70;74.06
49044;BME280;34860;48.066;14.124;2022-10-22T04:42:29;96516.28;;;9.73;74.08
49044;BME280;34860;48.066;14.124;2022-10-22T04:45:19;96517.66;;;9.81;74.11
49044;BME280;34860;48.066;14.124;2022-10-22T04:48:08;96514.28;;;9.90;74.05
49044;BME280;34860;48.066;14.124;2022-10-22T04:50:58;96517.66;;;9.97;73.97
49044;BME280;34860;48.066;14.124;2022-10-22T04:53:50;96521.78;;;10.06;73.83
49044;BME280;34860;48.066;14.124;2022-10-22T04:56:40;96521.16;;;10.14;73.79
49044;BME280;34860;48.066;14.124;2022-10-22T04:59:29;96529.91;;;10.29;73.51
49044;BME280;34860;48.066;14.124;2022-10-22T05:02:18;96526.41;;;10.42;73.55
49044;BME280;34860;48.066;14.124;2022-10-22T05:05:08;96536.34;;;10.56;73.39
49044;BME280;34860;48.066;14.124;2022-10-22T05:07:58;96537.06;;;10.72;73.36
49044;BME280;34860;48.066;14.124;2022-10-22T05:10:51;96542.88;;;10.91;73.07
49044;BME280;34860;48.066;14.124;2022-10-22T05:13:47;96545.56;;;11.07;73.11
49044;BME280;34860;48.066;14.124;2022-10-22T05:16:39;96538.91;;;11.18;73.01
49044;BME280;34860;48.066;14.124;2022-10-22T05:19:30;96558.94;;;11.25;72.82
49044;BME280;34860;48.066;14.124;2022-10-22T05:22:19;96553.94;;;11.33;73.05
49044;BME280;34860;48.066;14.124;2022-10-22T05:25:09;96553.25;;;11.42;73.15
49044;BME280;34860;48.066;14.124;2022-10-22T05:28:00;96551.03;;;11.50;73.20
49044;BME280;34860;48.066;14.124;2022-10-22T05:30:54;96566.84;;;11.53;73.38
49044;BME280;34860;48.066;14.124;2022-10-22T05:33:44;96570.75;;;11.55;73.30
49044;BME280;34860;48.066;14.124;2022-10-22T05:36:35;96583.41;;;11.56;73.38
49044;BME280;34860;48.066;14.124;2022-10-22T05:39:25;96585.00;;;11.57;73.53
49044;BME280;34860;48.066;14.124;2022-10-22T05:42:15;96589.66;;;11.60;73.70
49044;BME280;34860;48.066;14.124;2022-10-22T05:45:07;96589.88;;;11.66;73.57
49044;BME280;34860;48.066;14.124;2022-10-22T05:47:56;96592.44;;;11.73;73.58
49044;BME280;34860;48.066;14.124;2022-10-22T05:50:46;96585.97;;;11.76;73.73
49044;BME280;34860;48.066;14.124;2022-10-22T05:53:39;96584.19;;;11.82;73.80
49044;BME280;34860;48.066;14.124;2022-10-22T05:56:30;96589.19;;;11.88;73.63
49044;BME280;34860;48.066;14.124;2022-10-22T05:59:19;96596.56;;;11.94;73.56
49044;BME280;34860;48.066;14.124;2022-10-22T06:02:11;96597.56;;;12.01;73.71
49044;BME280;34860;48.066;14.124;2022-10-22T06:05:01;96601.34;;;12.07;73.65
49044;BME280;34860;48.066;14.124;2022-10-22T06:07:51;96609.91;;;12.12;73.67
49044;BME280;34860;48.066;14.124;2022-10-22T06:10:41;96617.25;;;12.19;73.58
49044;BME280;34860;48.066;14.124;2022-10-22T06:13:31;96628.16;;;12.26;73.52
49044;BME280;34860;48.066;14.124;2022-10-22T06:16:21;96629.59;;;12.31;73.54
49044;BME280;34860;48.066;14.124;2022-10-22T06:19:13;96627.66;;;12.41;73.46
49044;BME280;34860;48.066;14.124;2022-10-22T06:22:03;96641.03;;;12.46;73.53
49044;BME280;34860;48.066;14.124;2022-10-22T06:24:53;96650.38;;;12.52;73.40
49044;BME280;34860;48.066;14.124;2022-10-22T06:27:42;96649.81;;;12.57;73.39
49044;BME280;34860;48.066;14.124;2022-10-22T06:30:36;96654.03;;;12.62;73.50
49044;BME280;34860;48.066;14.124;2022-10-22T06:34:04;96657.03;;;12.67;73.39
49044;BME280;34860;48.066;14.124;2022-10-22T06:37:22;96649.75;;;12.70;73.54
49044;BME280;34860;48.066;14.124;2022-10-22T06:41:00;96667.16;;;12.74;73.36
49044;BME280;34860;48.066;14.124;2022-10-22T06:44:15;96665.81;;;12.79;73.65
49044;BME280;34860;48.066;14.124;2022-10-22T06:47:38;96672.16;;;12.79;73.54
49044;BME280;34860;48.066;14.124;2022-10-22T06:51:13;96674.03;;;12.82;73.58
49044;BME280;34860;48.066;14.124;2022-10-22T06:54:44;96677.50;;;12.86;73.69
49044;BME280;34860;48.066;14.124;2022-10-22T06:58:09;96673.44;;;12.87;73.71
49044;BME280;34860;48.066;14.124;2022-10-22T07:01:24;96677.34;;;12.90;73.57
49044;BME280;34860;48.066;14.124;2022-10-22T07:04:43;96677.34;;;12.90;73.71
49044;BME280;34860;48.066;14.124;2022-10-22T07:08:07;96682.94;;;12.90;73.88
49044;BME280;34860;48.066;14.124;2022-10-22T07:11:40;96680.91;;;12.90;73.81
49044;BME280;34860;48.066;14.124;2022-10-22T07:14:52;96688.38;;;12.94;73.65
49044;BME280;34860;48.066;14.124;2022-10-22T07:17:58;96686.84;;;12.93;73.83
49044;BME280;34860;48.066;14.124;2022-10-22T07:21:16;96692.75;;;12.95;73.83
49044;BME280;34860;48.066;14.124;2022-10-22T07:24:38;96695.06;;;12.96;73.89
49044;BME280;34860;48.066;14.124;2022-10-22T07:27:49;96690.63;;;12.99;73.88
49044;BME280;34860;48.066;14.124;2022-10-22T07:31:01;96681.78;;;13.00;73.87
49044;BME280;34860;48.066;14.124;2022-10-22T07:34:26;96686.44;;;13.03;74.04
49044;BME280;34860;48.066;14.124;2022-10-22T07:37:58;96681.22;;;13.05;73.90
49044;BME280;34860;48.066;14.124;2022-10-22T07:41:16;96680.63;;;13.11;73.81
49044;BME280;34860;48.066;14.124;2022-10-22T07:44:06;96677.69;;;13.14;73.88
49044;BME280;34860;48.066;14.124;2022-10-22T07:46:54;96675.25;;;13.16;73.96
49044;BME280;34860;48.066;14.124;2022-10-22T07:49:43;96680.84;;;13.16;73.94
49044;BME280;34860;48.066;14.124;2022-10-22T07:52:32;96683.13;;;13.18;74.03
49044;BME280;34860;48.066;14.124;2022-10-22T07:55:22;96681.91;;;13.19;74.08
49044;BME280;34860;48.066;14.124;2022-10-22T07:58:11;96696.19;;;13.21;74.22
49044;BME280;34860;48.066;14.124;2022-10-22T08:01:02;96702.56;;;13.21;74.03
49044;BME280;34860;48.066;14.124;2022-10-22T08:03:52;96705.34;;;13.21;74.25
49044;BME280;34860;48.066;14.124;2022-10-22T08:06:40;96698.72;;;13.28;74.20
49044;BME280;34860;48.066;14.124;2022-10-22T08:09:30;96715.69;;;13.34;74.09
49044;BME280;34860;48.066;14.124;2022-10-22T08:12:19;96707.66;;;13.36;74.14
49044;BME280;34860;48.066;14.124;2022-10-22T08:15:09;96697.91;;;13.40;74.14
49044;BME280;34860;48.066;14.124;2022-10-22T08:17:59;96703.22;;;13.48;74.03
49044;BME280;34860;48.066;14.124;2022-10-22T08:20:48;96700.19;;;13.55;74.08
49044;BME280;34860;48.066;14.124;2022-10-22T08:23:37;96692.88;;;13.57;74.01
49044;BME280;34860;48.066;14.124;2022-10-22T08:26:26;96701.16;;;13.61;73.84
49044;BME280;34860;48.066;14.124;2022-10-22T08:29:14;96709.63;;;13.57;74.05
49044;BME280;34860;48.066;14.124;2022-10-22T08:32:04;96707.31;;;13.56;74.23
49044;BME280;34860;48.066;14.124;2022-10-22T08:34:54;96709.78;;;13.54;74.30
49044;BME280;34860;48.066;14.124;2022-10-22T08:37:43;96711.66;;;13.57;74.28
49044;BME280;34860;48.066;14.124;2022-10-22T08:40:36;96709.63;;;13.57;74.30
49044;BME280;34860;48.066;14.124;2022-10-22T08:43:40;96723.03;;;13.62;74.21
49044;BME280;34860;48.066;14.124;2022-10-22T08:46:47;96724.44;;;13.67;74.21
49044;BME280;34860;48.066;14.124;2022-10-22T08:49:41;96716.41;;;13.69;74.17
49044;BME280;34860;48.066;14.124;2022-10-22T08:52:33;96726.97;;;13.74;74.19
49044;BME280;34860;48.066;14.124;2022-10-22T08:55:23;96728.66;;;13.72;74.19
49044;BME280;34860;48.066;14.124;2022-10-22T08:58:19;96730.81;;;13.68;74.21
49044;BME280;34860;48.066;14.124;2022-10-22T09:01:12;96727.69;;;13.66;74.30
49044;BME280;34860;48.066;14.124;2022-10-22T09:04:08;96732.63;;;13.61;74.43
49044;BME280;34860;48.066;14.124;2022-10-22T09:06:58;96738.69;;;13.60;74.60
49044;BME280;34860;48.066;14.124;2022-10-22T09:09:50;96743.16;;;13.57;74.53
49044;BME280;34860;48.066;14.124;2022-10-22T09:12:41;96762.25;;;13.59;74.40
49044;BME280;34860;48.066;14.124;2022-10-22T09:15:31;96763.34;;;13.61;74.51
49044;BME280;34860;48.066;14.124;2022-10-22T09:18:32;96763.50;;;13.58;74.43
49044;BME280;34860;48.066;14.124;2022-10-22T09:21:29;96763.16;;;13.56;74.47
49044;BME280;34860;48.066;14.124;2022-10-22T09:24:29;96762.06;;;13.53;74.60
49044;BME280;34860;48.066;14.124;2022-10-22T09:27:26;96769.63;;;13.53;74.30
49044;BME280;34860;48.066;14.124;2022-10-22T09:30:17;96770.91;;;13.52;74.38
49044;BME280;34860;48.066;14.124;2022-10-22T09:33:12;96770.09;;;13.51;74.47
49044;BME280;34860;48.066;14.124;2022-10-22T09:36:03;96779.72;;;13.50;74.49
49044;BME280;34860;48.066;14.124;2022-10-22T09:38:54;96787.28;;;13.50;74.45
49044;BME280;34860;48.066;14.124;2022-10-22T09:41:43;96797.69;;;13.49;74.47
49044;BME280;34860;48.066;14.124;2022-10-22T09:44:35;96802.06;;;13.50;74.43
49044;BME280;34860;48.066;14.124;2022-10-22T09:47:32;96800.50;;;13.49;74.42
49044;BME280;34860;48.066;14.124;2022-10-22T09:50:38;96804.84;;;13.50;74.49
49044;BME280;34860;48.066;14.124;2022-10-22T09:53:29;96811.06;;;13.54;74.27
49044;BME280;34860;48.066;14.124;2022-10-22T09:56:24;96813.88;;;13.54;74.33
49044;BME280;34860;48.066;14.124;2022-10-22T09:59:14;96821.78;;;13.56;74.17
49044;BME280;34860;48.066;14.124;2022-10-22T10:02:11;96820.25;;;13.55;74.18
49044;BME280;34860;48.066;14.124;2022-10-22T10:05:06;96824.13;;;13.57;74.22
49044;BME280;34860;48.066;14.124;2022-10-22T10:07:55;96826.38;;;13.62;74.03
49044;BME280;34860;48.066;14.124;2022-10-22T10:10:46;96828.34;;;13.62;73.87
49044;BME280;34860;48.066;14.124;2022-10-22T10:13:45;96827.13;;;13.63;73.98
49044;BME280;34860;48.066;14.124;2022-10-22T10:16:42;96830.69;;;13.63;74.04
49044;BME280;34860;48.066;14.124;2022-10-22T10:19:44;96825.44;;;13.66;74.10
49044;BME280;34860;48.066;14.124;2022-10-22T10:22:44;96821.41;;;13.67;74.06
49044;BME280;34860;48.066;14.124;2022-10-22T10:25:41;96814.59;;;13.68;74.05
49044;BME280;34860;48.066;14.124;2022-10-22T10:28:45;96830.56;;;13.67;74.12
49044;BME280;34860;48.066;14.124;2022-10-22T10:31:44;96828.22;;;13.66;74.18
49044;BME280;34860;48.066;14.124;2022-10-22T10:34:50;96832.78;;;13.72;74.25
49044;BME280;34860;48.066;14.124;2022-10-22T10:37:46;96828.16;;;13.78;74.21
49044;BME280;34860;48.066;14.124;2022-10-22T10:40:42;96832.38;;;13.83;74.14
49044;BME280;34860;48.066;14.124;2022-10-22T10:43:37;96826.34;;;13.85;74.02
49044;BME280;34860;48.066;14.124;2022-10-22T10:46:36;96834.63;;;13.88;74.14
49044;BME280;34860;48.066;14.124;2022-10-22T10:49:29;96823.31;;;13.92;73.97
49044;BME280;34860;48.066;14.124;2022-10-22T10:52:28;96829.06;;;13.97;74.20
49044;BME280;34860;48.066;14.124;2022-10-22T10:55:28;96831.75;;;14.01;74.13
49044;BME280;34860;48.066;14.124;2022-10-22T10:58:25;96831.16;;;14.06;74.07
49044;BME280;34860;48.066;14.124;2022-10-22T11:01:25;96821.72;;;14.13;74.08
49044;BME280;34860;48.066;14.124;2022-10-22T11:04:27;96817.56;;;14.17;74.24
49044;BME280;34860;48.066;14.124;2022-10-22T11:07:25;96819.75;;;14.23;74.23
49044;BME280;34860;48.066;14.124;2022-10-22T11:10:26;96815.72;;;14.24;74.25
49044;BME280;34860;48.066;14.124;2022-10-22T11:13:21;96807.34;;;14.24;74.38
49044;BME280;34860;48.066;14.124;2022-10-22T11:16:19;96811.06;;;14.21;74.40
49044;BME280;34860;48.066;14.124;2022-10-22T11:19:15;96811.97;;;14.17;74.46
49044;BME280;34860;48.066;14.124;2022-10-22T11:22:10;96824.38;;;14.16;74.45
49044;BME280;34860;48.066;14.124;2022-10-22T11:25:05;96814.16;;;14.23;74.47
49044;BME280;34860;48.066;14.124;2022-10-22T11:28:06;96820.53;;;14.23;74.60
49044;BME280;34860;48.066;14.124;2022-10-22T11:30:58;96813.25;;;14.26;74.72
49044;BME280;34860;48.066;14.124;2022-10-22T11:33:51;96821.47;;;14.29;74.47
49044;BME280;34860;48.066;14.124;2022-10-22T11:36:40;96808.88;;;14.25;74.59
49044;BME280;34860;48.066;14.124;2022-10-22T11:39:38;96802.81;;;14.26;74.95
49044;BME280;34860;48.066;14.124;2022-10-22T11:42:32;96798.81;;;14.27;74.82
49044;BME280;34860;48.066;14.124;2022-10-22T11:45:30;96794.03;;;14.37;74.73
49044;BME280;34860;48.066;14.124;2022-10-22T11:48:26;96801.34;;;14.34;74.75
49044;BME280;34860;48.066;14.124;2022-10-22T11:51:29;96794.19;;;14.33;74.75
49044;BME280;34860;48.066;14.124;2022-10-22T11:54:38;96788.13;;;14.35;75.00
49044;BME280;34860;48.066;14.124;2022-10-22T11:57:37;96793.56;;;14.39;74.84
49044;BME280;34860;48.066;14.124;2022-10-22T12:00:38;96792.63;;;14.32;74.82
49044;BME280;34860;48.066;14.124;2022-10-22T12:03:38;96788.91;;;14.35;74.91
49044;BME280;34860;48.066;14.124;2022-10-22T12:06:52;96790.31;;;14.40;74.85
49044;BME280;34860;48.066;14.124;2022-10-22T12:09:42;96784.28;;;14.42;74.78
49044;BME280;34860;48.066;14.124;2022-10-22T12:12:37;96778.53;;;14.45;74.89
49044;BME280;34860;48.066;14.124;2022-10-22T12:15:27;96790.22;;;14.53;74.64
49044;BME280;34860;48.066;14.124;2022-10-22T12:18:16;96789.59;;;14.58;74.52
49044;BME280;34860;48.066;14.124;2022-10-22T12:21:09;96785.16;;;14.61;74.63
49044;BME280;34860;48.066;14.124;2022-10-22T12:24:00;96782.66;;;14.63;74.76
49044;BME280;34860;48.066;14.124;2022-10-22T12:26:50;96788.72;;;14.61;74.56
49044;BME280;34860;48.066;14.124;2022-10-22T12:29:40;96791.97;;;14.60;74.78
49044;BME280;34860;48.066;14.124;2022-10-22T12:32:33;96793.97;;;14.59;74.57
49044;BME280;34860;48.066;14.124;2022-10-22T12:35:23;96789.81;;;14.64;74.42
49044;BME280;34860;48.066;14.124;2022-10-22T12:38:15;96784.53;;;14.66;74.53
49044;BME280;34860;48.066;14.124;2022-10-22T12:41:04;96786.25;;;14.63;74.58
49044;BME280;34860;48.066;14.124;2022-10-22T12:43:58;96781.44;;;14.64;74.66
49044;BME280;34860;48.066;14.124;2022-10-22T12:46:49;96788.13;;;14.66;74.64
49044;BME280;34860;48.066;14.124;2022-10-22T12:49:41;96777.75;;;14.76;74.47
49044;BME280;34860;48.066;14.124;2022-10-22T12:52:31;96770.16;;;14.86;74.35
49044;BME280;34860;48.066;14.124;2022-10-22T12:55:22;96768.13;;;14.86;74.27
49044;BME280;34860;48.066;14.124;2022-10-22T12:58:16;96783.66;;;14.87;74.29
49044;BME280;34860;48.066;14.124;2022-10-22T13:01:08;96771.22;;;14.88;74.27
49044;BME280;34860;48.066;14.124;2022-10-22T13:04:18;96766.56;;;14.85;74.42
49044;BME280;34860;48.066;14.124;2022-10-22T13:07:17;96763.28;;;14.87;74.57
49044;BME280;34860;48.066;14.124;2022-10-22T13:10:16;96773.09;;;14.92;74.22
49044;BME280;34860;48.066;14.124;2022-10-22T13:13:06;96771.09;;;14.92;74.26
49044;BME280;34860;48.066;14.124;2022-10-22T13:15:55;96772.97;;;14.95;74.03
49044;BME280;34860;48.066;14.124;2022-10-22T13:18:44;96768.44;;;14.98;74.22
49044;BME280;34860;48.066;14.124;2022-10-22T13:21:37;96772.94;;;15.04;73.93
49044;BME280;34860;48.066;14.124;2022-10-22T13:24:26;96775.94;;;15.10;73.92
49044;BME280;34860;48.066;14.124;2022-10-22T13:27:16;96786.19;;;15.13;73.95
49044;BME280;34860;48.066;14.124;2022-10-22T13:30:17;96784.16;;;15.14;73.91
49044;BME280;34860;48.066;14.124;2022-10-22T13:33:20;96783.09;;;15.11;73.78
49044;BME280;34860;48.066;14.124;2022-10-22T13:36:13;96787.44;;;15.12;74.21
49044;BME280;34860;48.066;14.124;2022-10-22T13:39:05;96780.13;;;15.15;74.12
49044;BME280;34860;48.066;14.124;2022-10-22T13:41:55;96788.84;;;15.17;73.97
49044;BME280;34860;48.066;14.124;2022-10-22T13:44:43;96799.88;;;15.20;73.98
49044;BME280;34860;48.066;14.124;2022-10-22T13:47:32;96787.44;;;15.21;74.00
49044;BME280;34860;48.066;14.124;2022-10-22T13:50:21;96797.41;;;15.22;73.99
49044;BME280;34860;48.066;14.124;2022-10-22T13:53:14;96791.66;;;15.26;74.13
49044;BME280;34860;48.066;14.124;2022-10-22T13:56:05;96794.75;;;15.28;74.00
49044;BME280;34860;48.066;14.124;2022-10-22T13:58:56;96792.59;;;15.23;74.22
49044;BME280;34860;48.066;14.124;2022-10-22T14:01:45;96794.63;;;15.22;74.15
49044;BME280;34860;48.066;14.124;2022-10-22T14:04:35;96791.34;;;15.24;74.31
49044;BME280;34860;48.066;14.124;2022-10-22T14:07:26;96793.69;;;15.25;74.29
49044;BME280;34860;48.066;14.124;2022-10-22T14:10:17;96795.22;;;15.26;74.41
49044;BME280;34860;48.066;14.124;2022-10-22T14:13:09;96797.41;;;15.22;74.50
49044;BME280;34860;48.066;14.124;2022-10-22T14:15:58;96799.88;;;15.20;74.50
49044;BME280;34860;48.066;14.124;2022-10-22T14:18:47;96813.41;;;15.22;74.57
49044;BME280;34860;48.066;14.124;2022-10-22T14:21:36;96813.75;;;15.24;74.44
49044;BME280;34860;48.066;14.124;2022-10-22T14:24:25;96815.44;;;15.21;74.62
49044;BME280;34860;48.066;14.124;2022-10-22T14:27:14;96810.47;;;15.16;74.50
49044;BME280;34860;48.066;14.124;2022-10-22T14:30:06;96810.16;;;15.14;74.55
49044;BME280;34860;48.066;14.124;2022-10-22T14:32:56;96805.31;;;15.15;74.49
49044;BME280;34860;48.066;14.124;2022-10-22T14:35:46;96809.69;;;15.16;74.35
49044;BME280;34860;48.066;14.124;2022-10-22T14:38:35;96803.94;;;15.19;74.35
49044;BME280;34860;48.066;14.124;2022-10-22T14:41:26;96802.53;;;15.24;74.37
49044;BME280;34860;48.066;14.124;2022-10-22T14:44:16;96807.34;;;15.23;74.51
49044;BME280;34860;48.066;14.124;2022-10-22T14:47:06;96805.47;;;15.20;74.48
49044;BME280;34860;48.066;14.124;2022-10-22T14:49:55;96805.94;;;15.19;74.66
49044;BME280;34860;48.066;14.124;2022-10-22T14:52:43;96805.63;;;15.17;74.54
49044;BME280;34860;48.066;14.124;2022-10-22T14:55:32;96800.84;;;15.17;74.52
49044;BME280;34860;48.066;14.124;2022-10-22T14:58:21;96804.41;;;15.18;74.55
49044;BME280;34860;48.066;14.124;2022-10-22T15:01:10;96800.69;;;15.21;74.57
49044;BME280;34860;48.066;14.124;2022-10-22T15:04:00;96811.53;;;15.19;74.43
49044;BME280;34860;48.066;14.124;2022-10-22T15:06:49;96805.16;;;15.18;74.78
49044;BME280;34860;48.066;14.124;2022-10-22T15:09:42;96822.91;;;15.15;74.75
49044;BME280;34860;48.066;14.124;2022-10-22T15:12:31;96820.25;;;15.12;74.89
49044;BME280;34860;48.066;14.124;2022-10-22T15:15:20;96817.75;;;15.04;75.08